Meraux, Louisiana
Current Conditions -  °F | °C
As of 3:55 AM on Friday 24 Oct 2014 (Local Time) from KNBG Reporting Station
Clear Clear  
Wind Chill: 51°   Ceiling: Unl
Heat Index: 51°   Visibility: NA
Dew Point: 47°   Wind: 3mph
Humidity: 86%   Direction: 350°N
Pressure: 30.07"   Gusts: NA
Location:  29.92°N, 89.91°W
Report Text: KNBG 240855Z AUTO 35003KT CLR 11/08 A3007 RMK AO2 SLP182 T01060083 53002 TSNO $
Loading
Personal Weather Stations






























Interactive Weather Map
Tropical Storm Tracking
New forecast layout! Learn more

10-Day Weather Forecast

Advertisements
Track Severe Weather on mobile